Terminal Aerodrome Forecast
Issued by NWS

Home | Current Version | Previous Version | Text Only | Print | Product List | Glossary On
Versions: 1 2 3 4 5 6 7 8 9 10 11 12 13 14
000
FTAK31 PAFA 010558 AAA
TAFAOM
TAF AMD
PAOM 010558Z 0106/0206 04015G22KT P6SM FEW060
     FM012100 05015KT P6SM SKC=

USA.gov is the U.S. government's official web portal to all federal, state and local government web resources and services.